createdAt,value
2022-08-30T00:00:16.605Z,22.55
2022-08-30T00:03:04.302Z,20.88
2022-08-30T00:05:32.646Z,23.38
2022-08-30T00:08:01.369Z,17.80
2022-08-30T00:10:29.990Z,22.88
2022-08-30T00:13:00.201Z,18.15
2022-08-30T00:15:30.252Z,17.27
2022-08-30T00:17:58.049Z,20.88
2022-08-30T00:20:30.269Z,16.70
2022-08-30T00:25:26.322Z,16.42
2022-08-30T00:27:54.565Z,20.55
2022-08-30T00:30:22.937Z,18.35
2022-08-30T00:32:52.233Z,17.27
2022-08-30T00:35:20.906Z,16.40
2022-08-30T00:37:49.422Z,18.50
2022-08-30T00:40:19.608Z,18.00
2022-08-30T00:42:58.125Z,19.83
2022-08-30T00:45:30.809Z,19.83
2022-08-30T00:48:00.989Z,18.60
2022-08-30T00:50:32.090Z,22.17
2022-08-30T00:53:05.769Z,19.47
2022-08-30T00:55:34.200Z,20.38
2022-08-30T00:58:10.938Z,24.42
2022-08-30T01:00:38.917Z,19.92
2022-08-30T01:03:09.198Z,22.02
2022-08-30T01:05:38.864Z,22.27
2022-08-30T01:08:07.717Z,17.92
2022-08-30T01:10:37.258Z,26.48
2022-08-30T01:13:05.826Z,14.98
2022-08-30T01:15:35.299Z,16.50
2022-08-30T01:18:05.625Z,17.30
2022-08-30T01:20:45.671Z,20.40
2022-08-30T01:23:18.392Z,19.10
2022-08-30T01:25:48.279Z,16.23
2022-08-30T01:28:21.438Z,21.15
2022-08-30T01:30:49.908Z,23.23
2022-08-30T01:33:20.036Z,20.27
2022-08-30T01:35:53.833Z,20.30
2022-08-30T01:38:27.394Z,16.35
2022-08-30T01:40:59.494Z,19.58
2022-08-30T01:43:28.972Z,21.92
2022-08-30T01:45:57.118Z,21.92
2022-08-30T01:48:30.869Z,25.02
2022-08-30T01:50:59.847Z,16.10
2022-08-30T01:53:29.821Z,20.95
2022-08-30T01:55:58.165Z,17.40
2022-08-30T01:58:26.240Z,21.85
2022-08-30T02:00:54.355Z,18.02
2022-08-30T02:03:22.703Z,19.05
2022-08-30T02:05:51.234Z,15.23
2022-08-30T02:08:19.033Z,14.70
2022-08-30T02:10:48.450Z,17.88
2022-08-30T02:13:16.939Z,16.90
2022-08-30T02:15:44.910Z,22.48
2022-08-30T02:18:12.773Z,18.55
2022-08-30T02:20:41.198Z,21.25
2022-08-30T02:23:09.227Z,17.27
2022-08-30T02:25:36.981Z,20.63
2022-08-30T02:28:06.885Z,14.98
2022-08-30T02:30:36.788Z,17.48
2022-08-30T02:33:04.854Z,22.13
2022-08-30T02:35:33.067Z,17.30
2022-08-30T02:38:01.117Z,15.55
2022-08-30T02:40:29.362Z,16.75
2022-08-30T02:42:58.478Z,18.92
2022-08-30T02:45:28.005Z,21.02
2022-08-30T02:47:56.751Z,19.90
2022-08-30T02:50:26.151Z,26.58
2022-08-30T02:52:54.377Z,18.90
2022-08-30T02:55:23.591Z,16.52
2022-08-30T02:57:51.896Z,16.38
2022-08-30T03:00:22.044Z,24.73
2022-08-30T03:02:51.200Z,19.55
2022-08-30T03:05:20.131Z,17.48
2022-08-30T03:07:49.102Z,15.38
2022-08-30T03:10:17.654Z,15.02
2022-08-30T03:12:47.874Z,18.80
2022-08-30T03:15:16.876Z,15.02
2022-08-30T03:17:45.032Z,13.00
2022-08-30T03:20:14.561Z,14.55
2022-08-30T03:22:42.369Z,15.63
2022-08-30T03:25:10.396Z,18.13
2022-08-30T03:27:38.535Z,20.17
2022-08-30T03:30:08.281Z,16.50
2022-08-30T03:32:36.328Z,17.98
2022-08-30T03:35:05.269Z,15.18
2022-08-30T03:37:35.215Z,14.15
2022-08-30T03:40:03.777Z,17.98
2022-08-30T03:42:32.006Z,13.82
2022-08-30T03:45:01.279Z,17.63
2022-08-30T03:47:29.124Z,14.90
2022-08-30T03:49:57.601Z,14.90
2022-08-30T03:52:25.426Z,15.10
2022-08-30T03:54:54.687Z,16.75
2022-08-30T03:57:24.315Z,15.70
2022-08-30T03:59:52.773Z,14.05
2022-08-30T04:02:21.187Z,17.77
2022-08-30T04:04:49.674Z,14.73
2022-08-30T04:07:19.070Z,14.93
2022-08-30T04:09:47.249Z,18.60
2022-08-30T04:12:18.385Z,18.83
2022-08-30T04:14:50.624Z,17.85
2022-08-30T04:17:18.780Z,18.52
2022-08-30T04:19:46.608Z,16.50
2022-08-30T04:22:14.539Z,18.70
2022-08-30T04:24:42.794Z,16.33
2022-08-30T04:27:10.952Z,17.63
2022-08-30T04:29:40.112Z,18.80
2022-08-30T04:32:08.722Z,16.52
2022-08-30T04:34:36.727Z,16.33
2022-08-30T04:37:04.643Z,15.60
2022-08-30T04:39:33.921Z,20.25
2022-08-30T04:42:03.253Z,21.23
2022-08-30T04:44:32.817Z,15.85
2022-08-30T04:47:02.397Z,14.00
2022-08-30T04:49:32.317Z,11.32
2022-08-30T04:52:00.144Z,18.02
2022-08-30T04:54:28.526Z,14.95
2022-08-30T04:56:56.362Z,13.85
2022-08-30T04:59:24.316Z,20.73
2022-08-30T05:01:52.398Z,16.55
2022-08-30T05:04:21.578Z,16.27
2022-08-30T05:06:49.374Z,13.13
2022-08-30T05:09:18.148Z,14.77
2022-08-30T05:11:46.411Z,10.98
2022-08-30T05:14:15.025Z,11.82
2022-08-30T05:16:43.759Z,11.40
2022-08-30T05:19:11.572Z,16.15
2022-08-30T05:21:41.597Z,9.10
2022-08-30T05:24:10.177Z,13.13
2022-08-30T05:26:39.382Z,10.68
2022-08-30T05:29:07.214Z,16.35
2022-08-30T05:31:37.415Z,13.00
2022-08-30T05:34:06.105Z,12.10
2022-08-30T05:36:36.139Z,13.00
2022-08-30T05:39:06.314Z,10.52
2022-08-30T05:41:34.549Z,9.18
2022-08-30T05:44:06.318Z,11.27
2022-08-30T05:49:08.743Z,11.85
2022-08-30T05:51:41.109Z,15.95
2022-08-30T05:54:13.445Z,13.25
2022-08-30T05:56:43.290Z,12.55
2022-08-30T05:59:11.193Z,14.32
2022-08-30T06:01:41.681Z,12.38
2022-08-30T06:04:11.875Z,10.02
2022-08-30T06:06:42.248Z,9.90
2022-08-30T06:09:14.054Z,8.57
2022-08-30T06:11:42.364Z,9.40
2022-08-30T06:14:10.501Z,15.57
2022-08-30T06:16:40.565Z,13.43
2022-08-30T06:19:11.180Z,12.10
2022-08-30T06:21:40.661Z,10.52
2022-08-30T06:24:10.115Z,10.05
2022-08-30T06:26:41.708Z,12.27
2022-08-30T06:29:11.190Z,13.70
2022-08-30T06:31:39.503Z,9.65
2022-08-30T06:34:08.026Z,14.27
2022-08-30T06:36:36.672Z,8.68
2022-08-30T06:39:05.280Z,10.85
2022-08-30T06:41:38.529Z,16.15
2022-08-30T06:44:11.904Z,6.97
2022-08-30T06:46:40.348Z,8.00
2022-08-30T06:49:08.723Z,9.07
2022-08-30T06:51:40.021Z,11.32
2022-08-30T06:54:12.146Z,19.05
2022-08-30T06:56:55.318Z,13.48
2022-08-30T06:59:27.632Z,13.48
2022-08-30T07:01:56.013Z,15.07
2022-08-30T07:04:23.912Z,12.55
2022-08-30T07:06:52.360Z,12.00
2022-08-30T07:09:22.873Z,12.43
2022-08-30T07:11:52.631Z,11.98
2022-08-30T07:14:21.735Z,16.98
2022-08-30T07:16:52.078Z,20.23
2022-08-30T07:19:20.742Z,17.80
2022-08-30T07:21:50.851Z,10.82
2022-08-30T07:24:19.666Z,14.05
2022-08-30T07:26:49.781Z,13.20
2022-08-30T07:29:19.351Z,12.52
2022-08-30T07:31:47.434Z,10.70
2022-08-30T07:34:16.595Z,13.45
2022-08-30T07:36:45.080Z,11.10
2022-08-30T07:39:13.205Z,19.10
2022-08-30T07:41:40.953Z,17.50
2022-08-30T07:44:09.528Z,15.45
2022-08-30T07:46:39.924Z,17.35
2022-08-30T07:49:10.851Z,23.58
2022-08-30T07:51:41.815Z,20.67
2022-08-30T07:54:09.882Z,14.80
2022-08-30T07:56:37.848Z,12.52
2022-08-30T08:13:56.962Z,11.30
2022-08-30T08:16:28.983Z,11.80
2022-08-30T08:18:57.009Z,10.00
2022-08-30T08:21:25.857Z,9.10
2022-08-30T08:23:54.617Z,12.10
2022-08-30T08:26:23.162Z,6.55
2022-08-30T08:28:51.049Z,12.38
2022-08-30T08:31:23.666Z,9.70
2022-08-30T08:33:55.687Z,13.77
2022-08-30T08:36:24.080Z,8.60
2022-08-30T08:38:51.903Z,8.80
2022-08-30T08:41:34.969Z,12.13
2022-08-30T08:44:08.569Z,8.88
2022-08-30T08:46:45.595Z,10.43
2022-08-30T08:49:14.290Z,9.65
2022-08-30T08:52:00.161Z,8.52
2022-08-30T08:54:34.400Z,12.00
2022-08-30T08:57:02.610Z,11.50
2022-08-30T08:59:30.802Z,11.80
2022-08-30T09:02:03.179Z,14.27
2022-08-30T09:04:35.313Z,12.10
2022-08-30T09:09:37.235Z,10.50
2022-08-30T09:12:06.907Z,8.63
2022-08-30T09:14:44.234Z,10.93
2022-08-30T09:17:17.796Z,12.77
2022-08-30T09:19:58.511Z,12.35
2022-08-30T09:22:32.121Z,11.05
2022-08-30T09:25:05.167Z,8.90
2022-08-30T09:27:35.668Z,13.88
2022-08-30T09:30:14.273Z,10.75
2022-08-30T09:32:52.386Z,12.05
2022-08-30T09:35:22.974Z,8.57
2022-08-30T09:37:55.002Z,9.25
2022-08-30T09:40:29.373Z,9.32
2022-08-30T09:43:03.069Z,9.98
2022-08-30T09:45:36.013Z,8.98
2022-08-30T09:48:23.748Z,9.38
2022-08-30T09:50:56.036Z,5.28
2022-08-30T09:53:28.113Z,5.47
2022-08-30T09:56:06.984Z,8.60
2022-08-30T09:59:33.324Z,10.15
2022-08-30T10:02:07.470Z,5.53
2022-08-30T10:04:45.594Z,8.73
2022-08-30T10:07:21.572Z,6.75
2022-08-30T10:10:04.800Z,5.38
2022-08-30T10:12:42.301Z,5.40
2022-08-30T10:15:19.534Z,7.65
2022-08-30T10:17:56.303Z,8.60
2022-08-30T10:20:32.445Z,6.60
2022-08-30T10:23:07.257Z,5.60
2022-08-30T10:25:40.081Z,10.85
2022-08-30T10:28:14.692Z,8.70
2022-08-30T10:30:48.295Z,5.05
2022-08-30T10:33:22.157Z,5.97
2022-08-30T10:35:58.921Z,4.82
2022-08-30T10:38:31.819Z,7.57
2022-08-30T10:41:14.936Z,6.78
2022-08-30T10:43:51.326Z,4.05
2022-08-30T10:46:28.983Z,4.07
2022-08-30T10:48:59.222Z,4.65
2022-08-30T10:51:33.606Z,4.60
2022-08-30T10:54:10.917Z,5.40
2022-08-30T10:56:44.181Z,4.63
2022-08-30T10:59:13.023Z,4.70
2022-08-30T11:02:03.557Z,6.88
2022-08-30T11:05:08.776Z,5.72
2022-08-30T11:07:52.096Z,6.45
2022-08-30T11:10:33.997Z,7.82
2022-08-30T11:13:05.816Z,5.07
2022-08-30T11:15:37.706Z,5.20
2022-08-30T11:20:40.031Z,5.65
2022-08-30T11:23:32.817Z,7.95
2022-08-30T11:26:04.983Z,7.88
2022-08-30T11:29:01.058Z,4.65
2022-08-30T11:31:43.650Z,6.82
2022-08-30T11:34:13.312Z,5.25
2022-08-30T11:37:10.072Z,3.63
2022-08-30T11:40:14.267Z,3.65
2022-08-30T11:42:46.878Z,5.32
2022-08-30T11:45:52.205Z,4.32
2022-08-30T11:48:53.552Z,4.05
2022-08-30T11:51:58.010Z,5.03
2022-08-30T11:54:46.009Z,6.22
2022-08-30T11:57:27.321Z,4.63
2022-08-30T12:00:05.984Z,5.53
2022-08-30T12:02:55.257Z,5.10
2022-08-30T12:05:54.358Z,3.30
2022-08-30T12:09:02.341Z,5.43
2022-08-30T12:12:05.625Z,5.88
2022-08-30T12:14:48.960Z,4.22
2022-08-30T12:17:52.144Z,4.43
2022-08-30T12:20:29.316Z,3.58
2022-08-30T12:22:58.721Z,4.55
2022-08-30T12:25:31.393Z,2.80
2022-08-30T12:28:11.919Z,3.90
2022-08-30T12:30:41.612Z,5.18
2022-08-30T12:33:14.262Z,7.45
2022-08-30T12:35:45.136Z,3.45
2022-08-30T12:38:19.271Z,6.70
2022-08-30T12:40:57.618Z,6.28
2022-08-30T12:43:38.874Z,6.45
2022-08-30T12:46:15.146Z,4.72
2022-08-30T12:48:45.105Z,4.82
2022-08-30T12:51:28.914Z,3.92
2022-08-30T12:54:06.409Z,5.80
2022-08-30T12:56:56.101Z,4.07
2022-08-30T13:00:02.101Z,4.40
2022-08-30T13:02:44.350Z,4.82
2022-08-30T13:05:45.575Z,6.00
2022-08-30T13:08:20.193Z,4.30
2022-08-30T13:10:54.223Z,4.18
2022-08-30T13:13:37.442Z,5.50
2022-08-30T13:16:24.846Z,5.18
2022-08-30T13:19:17.003Z,6.55
2022-08-30T13:21:51.533Z,4.07
2022-08-30T13:24:23.494Z,5.10
2022-08-30T13:26:55.035Z,6.10
2022-08-30T13:29:26.237Z,4.93
2022-08-30T13:31:54.884Z,6.47
2022-08-30T13:34:24.279Z,6.53
2022-08-30T13:36:55.957Z,3.85
2022-08-30T13:39:25.083Z,4.88
2022-08-30T13:41:53.768Z,5.43
2022-08-30T13:44:21.730Z,5.78
2022-08-30T13:46:55.343Z,4.28
2022-08-30T13:49:43.869Z,5.47
2022-08-30T13:52:20.782Z,5.13
2022-08-30T13:54:51.004Z,6.07
2022-08-30T14:00:14.685Z,6.53
2022-08-30T14:02:47.600Z,11.27
2022-08-30T14:05:46.935Z,5.50
2022-08-30T14:08:44.272Z,6.07
2022-08-30T14:10:57.508Z,5.03
2022-08-30T14:13:29.204Z,4.93
2022-08-30T14:18:46.897Z,6.63
2022-08-30T14:21:16.606Z,4.00
2022-08-30T14:23:44.542Z,5.15
2022-08-30T14:26:17.689Z,5.22
2022-08-30T14:28:46.768Z,4.88
2022-08-30T14:31:20.425Z,4.53
2022-08-30T14:33:48.614Z,5.78
2022-08-30T14:36:18.769Z,4.57
2022-08-30T14:38:47.238Z,4.00
2022-08-30T14:41:16.693Z,4.85
2022-08-30T14:43:44.847Z,3.90
2022-08-30T14:46:13.399Z,7.65
2022-08-30T14:48:41.658Z,3.42
2022-08-30T14:51:16.992Z,3.63
2022-08-30T14:53:47.758Z,4.85
2022-08-30T14:56:19.436Z,3.05
2022-08-30T14:58:49.219Z,3.72
2022-08-30T15:01:17.419Z,3.85
2022-08-30T15:03:45.673Z,5.55
2022-08-30T15:06:14.244Z,4.32
2022-08-30T15:08:42.786Z,4.22
2022-08-30T15:11:20.148Z,7.03
2022-08-30T15:13:48.749Z,4.40
2022-08-30T15:16:19.110Z,4.38
2022-08-30T15:18:48.470Z,4.90
2022-08-30T15:21:23.582Z,6.07
2022-08-30T15:23:53.200Z,4.35
2022-08-30T15:26:22.726Z,5.20
2022-08-30T15:28:50.663Z,3.88
2022-08-30T15:31:20.535Z,3.92
2022-08-30T15:33:51.214Z,7.38
2022-08-30T15:36:19.652Z,3.92
2022-08-30T15:38:48.260Z,4.75
2022-08-30T15:41:16.331Z,3.88
2022-08-30T15:43:46.038Z,5.32
2022-08-30T15:46:22.533Z,7.55
2022-08-30T15:48:52.996Z,5.03
2022-08-30T15:51:21.226Z,6.18
2022-08-30T15:53:49.331Z,4.07
2022-08-30T15:56:18.428Z,7.10
2022-08-30T15:58:48.763Z,4.28
2022-08-30T16:01:22.854Z,4.70
2022-08-30T16:03:58.966Z,4.88
2022-08-30T16:06:29.951Z,4.43
2022-08-30T16:08:58.717Z,9.65
2022-08-30T16:11:27.490Z,3.70
2022-08-30T16:13:58.905Z,4.03
2022-08-30T16:16:26.981Z,4.40
2022-08-30T16:18:55.457Z,4.75
2022-08-30T16:21:25.960Z,5.40
2022-08-30T16:23:56.047Z,3.65
2022-08-30T16:26:25.305Z,4.30
2022-08-30T16:28:53.776Z,6.63
2022-08-30T16:31:24.173Z,6.65
2022-08-30T16:33:54.705Z,5.60
2022-08-30T16:36:24.901Z,8.88
2022-08-30T16:38:57.889Z,6.68
2022-08-30T16:41:27.326Z,8.57
2022-08-30T16:43:56.166Z,8.98
2022-08-30T16:46:27.899Z,3.75
2022-08-30T16:48:58.594Z,3.88
2022-08-30T16:51:29.325Z,5.35
2022-08-30T16:53:58.157Z,3.97
2022-08-30T16:56:27.528Z,5.22
2022-08-30T16:59:02.185Z,4.40
2022-08-30T17:01:34.984Z,4.45
2022-08-30T17:04:04.171Z,4.43
2022-08-30T17:06:33.756Z,4.13
2022-08-30T17:09:03.939Z,4.95
2022-08-30T17:11:32.991Z,10.15
2022-08-30T17:14:01.565Z,6.03
2022-08-30T17:16:29.986Z,4.97
2022-08-30T17:19:01.451Z,3.83
2022-08-30T17:21:29.635Z,7.55
2022-08-30T17:24:01.793Z,4.45
2022-08-30T17:26:31.371Z,6.70
2022-08-30T17:28:59.665Z,7.07
2022-08-30T17:31:30.421Z,5.68
2022-08-30T17:34:04.166Z,8.85
2022-08-30T17:36:35.606Z,8.05
2022-08-30T17:39:11.369Z,8.60
2022-08-30T17:41:45.369Z,11.00
2022-08-30T17:44:18.346Z,6.03
2022-08-30T17:46:46.467Z,6.68
2022-08-30T17:49:15.681Z,5.88
2022-08-30T17:51:47.791Z,6.18
2022-08-30T17:54:16.468Z,5.38
2022-08-30T17:56:46.018Z,4.95
2022-08-30T17:59:15.204Z,3.90
2022-08-30T18:01:45.232Z,5.78
2022-08-30T18:04:19.450Z,6.88
2022-08-30T18:06:47.878Z,4.05
2022-08-30T18:09:15.867Z,4.50
2022-08-30T18:11:43.823Z,6.20
2022-08-30T18:14:12.897Z,3.47
2022-08-30T18:16:53.242Z,7.53
2022-08-30T18:19:25.794Z,3.53
2022-08-30T18:21:55.112Z,8.52
2022-08-30T18:24:24.557Z,8.02
2022-08-30T18:26:54.629Z,17.83
2022-08-30T18:29:29.319Z,25.70
2022-08-30T18:32:00.541Z,10.85
2022-08-30T18:34:31.018Z,4.93
2022-08-30T18:36:59.665Z,6.30
2022-08-30T18:39:34.623Z,5.10
2022-08-30T18:42:03.444Z,4.82
2022-08-30T18:44:33.417Z,5.40
2022-08-30T18:47:05.669Z,6.22
2022-08-30T18:49:37.039Z,5.53
2022-08-30T18:52:07.249Z,10.63
2022-08-30T18:54:40.340Z,6.55
2022-08-30T18:57:09.768Z,6.72
2022-08-30T18:59:38.602Z,6.65
2022-08-30T19:02:07.253Z,6.55
2022-08-30T19:04:39.862Z,7.35
2022-08-30T19:07:13.076Z,10.20
2022-08-30T19:09:43.091Z,7.03
2022-08-30T19:12:11.889Z,8.13
2022-08-30T19:14:40.410Z,10.27
2022-08-30T19:17:08.873Z,5.82
2022-08-30T19:19:48.680Z,10.93
2022-08-30T19:22:19.175Z,7.57
2022-08-30T19:24:47.876Z,7.97
2022-08-30T19:27:19.042Z,8.30
2022-08-30T19:29:53.084Z,12.65
2022-08-30T19:32:21.845Z,7.28
2022-08-30T19:34:51.711Z,7.35
2022-08-30T19:37:21.293Z,9.05
2022-08-30T19:39:49.179Z,5.93
2022-08-30T19:42:17.094Z,7.28
2022-08-30T19:44:45.431Z,6.55
2022-08-30T19:47:13.957Z,6.70
2022-08-30T19:49:41.812Z,8.48
2022-08-30T19:52:11.304Z,6.32
2022-08-30T19:54:39.305Z,10.25
2022-08-30T19:57:09.837Z,8.18
2022-08-30T19:59:38.230Z,7.25
2022-08-30T20:02:06.898Z,6.70
2022-08-30T20:04:34.965Z,6.88
2022-08-30T20:07:03.808Z,9.20
2022-08-30T20:09:33.189Z,6.55
2022-08-30T20:12:01.300Z,6.72
2022-08-30T20:14:29.706Z,6.43
2022-08-30T20:16:57.516Z,11.85
2022-08-30T20:19:27.575Z,7.63
2022-08-30T20:21:59.122Z,6.80
2022-08-30T20:27:02.281Z,11.93
2022-08-30T20:29:30.276Z,7.40
2022-08-30T20:31:58.329Z,7.97
2022-08-30T20:34:27.525Z,6.40
2022-08-30T20:36:55.886Z,6.35
2022-08-30T20:39:24.004Z,8.82
2022-08-30T20:41:54.621Z,10.02
2022-08-30T20:44:24.266Z,9.05
2022-08-30T20:46:52.019Z,7.70
2022-08-30T20:49:20.329Z,7.13
2022-08-30T20:51:54.033Z,10.35
2022-08-30T20:54:22.970Z,7.82
2022-08-30T20:56:51.420Z,7.03
2022-08-30T20:59:20.962Z,8.02
2022-08-30T21:01:49.924Z,9.52
2022-08-30T21:04:18.823Z,8.18
2022-08-30T21:06:46.710Z,10.02
2022-08-30T21:09:16.068Z,10.90
2022-08-30T21:11:44.905Z,14.73
2022-08-30T21:14:13.347Z,13.10
2022-08-30T21:16:42.979Z,14.13
2022-08-30T21:19:11.049Z,12.55
2022-08-30T21:21:38.904Z,13.35
2022-08-30T21:24:09.966Z,11.13
2022-08-30T21:26:38.316Z,15.55
2022-08-30T21:29:07.125Z,8.60
2022-08-30T21:31:37.686Z,12.40
2022-08-30T21:34:08.535Z,9.88
2022-08-30T21:36:46.139Z,9.00
2022-08-30T21:39:20.446Z,7.90
2022-08-30T21:41:50.152Z,11.02
2022-08-30T21:44:21.157Z,7.40
2022-08-30T21:46:54.437Z,9.88
2022-08-30T21:49:25.114Z,8.65
2022-08-30T21:51:55.273Z,7.53
2022-08-30T21:54:24.385Z,7.63
2022-08-30T21:56:54.504Z,6.47
2022-08-30T21:59:22.750Z,6.38
2022-08-30T22:01:50.994Z,8.57
2022-08-30T22:04:23.063Z,7.50
2022-08-30T22:06:55.613Z,9.98
2022-08-30T22:09:25.886Z,6.35
2022-08-30T22:11:54.744Z,9.77
2022-08-30T22:14:24.105Z,8.05
2022-08-30T22:16:54.593Z,8.52
2022-08-30T22:19:23.643Z,7.35
2022-08-30T22:22:00.674Z,11.68
2022-08-30T22:24:32.360Z,8.98
2022-08-30T22:27:02.682Z,11.75
2022-08-30T22:29:30.882Z,10.68
2022-08-30T22:31:59.483Z,7.78
2022-08-30T22:34:28.761Z,9.25
2022-08-30T22:36:56.943Z,12.95
2022-08-30T22:39:26.257Z,11.98
2022-08-30T22:41:55.857Z,13.43
2022-08-30T22:44:23.742Z,10.75
2022-08-30T22:46:52.058Z,8.00
2022-08-30T22:49:20.421Z,11.18
2022-08-30T22:51:48.353Z,9.35
2022-08-30T22:54:16.330Z,7.63
2022-08-30T22:56:44.661Z,11.50
2022-08-30T22:59:14.023Z,6.30
2022-08-30T23:01:43.908Z,6.93
2022-08-30T23:04:13.063Z,7.60
2022-08-30T23:06:42.077Z,9.63
2022-08-30T23:09:18.371Z,6.35
2022-08-30T23:11:46.121Z,7.80
2022-08-30T23:14:15.260Z,7.32
2022-08-30T23:16:43.510Z,5.43
2022-08-30T23:19:11.381Z,7.80
2022-08-30T23:21:39.173Z,9.02
2022-08-30T23:24:25.339Z,7.80
2022-08-30T23:27:10.541Z,6.65
2022-08-30T23:29:59.501Z,7.13
2022-08-30T23:32:44.928Z,5.00
2022-08-30T23:35:31.651Z,4.28
2022-08-30T23:38:17.454Z,7.93
2022-08-30T23:41:03.482Z,7.03
2022-08-30T23:43:48.900Z,7.10
2022-08-30T23:46:36.657Z,5.30
2022-08-30T23:49:22.589Z,5.90
2022-08-30T23:52:08.271Z,7.78
2022-08-30T23:54:54.874Z,7.32
2022-08-30T23:57:43.733Z,6.57
